createdAt,value
2022-11-27T00:01:39.186Z,37.20
2022-11-27T00:04:40.326Z,34.47
2022-11-27T00:07:41.204Z,41.45
2022-11-27T00:10:42.435Z,37.10
2022-11-27T00:13:44.075Z,39.47
2022-11-27T00:16:45.354Z,36.03
2022-11-27T00:19:46.302Z,39.45
2022-11-27T00:22:47.007Z,41.95
2022-11-27T00:25:52.806Z,38.00
2022-11-27T00:28:54.670Z,31.98
2022-11-27T00:31:56.828Z,32.03
2022-11-27T00:34:58.057Z,31.60
2022-11-27T00:37:59.755Z,35.35
2022-11-27T00:41:15.470Z,30.90
2022-11-27T00:44:16.387Z,33.10
2022-11-27T00:47:17.315Z,39.28
2022-11-27T00:50:18.525Z,33.75
2022-11-27T00:53:19.667Z,41.90
2022-11-27T00:56:32.429Z,38.83
2022-11-27T00:59:33.346Z,35.53
2022-11-27T01:02:34.805Z,32.42
2022-11-27T01:05:38.198Z,39.25
2022-11-27T01:08:40.298Z,34.42
2022-11-27T01:11:42.265Z,33.28
2022-11-27T01:14:43.058Z,38.75
2022-11-27T01:17:43.731Z,34.17
2022-11-27T01:20:44.562Z,36.42
2022-11-27T01:23:46.717Z,41.78
2022-11-27T01:26:47.761Z,33.92
2022-11-27T01:29:48.786Z,42.67
2022-11-27T01:32:49.586Z,39.22
2022-11-27T01:36:02.121Z,38.65
2022-11-27T01:39:05.056Z,43.80
2022-11-27T01:42:06.263Z,42.83
2022-11-27T01:45:13.953Z,40.58
2022-11-27T01:48:15.211Z,43.60
2022-11-27T01:51:16.671Z,43.30
2022-11-27T01:54:21.753Z,44.92
2022-11-27T01:57:40.062Z,47.70
2022-11-27T02:00:41.741Z,45.78
2022-11-27T02:03:42.745Z,47.45
2022-11-27T02:06:43.508Z,41.33
2022-11-27T02:09:45.325Z,40.72
2022-11-27T02:13:10.283Z,46.97
2022-11-27T02:16:38.930Z,46.63
2022-11-27T02:20:27.540Z,46.50
2022-11-27T02:23:56.433Z,48.55
2022-11-27T02:27:18.291Z,39.15
2022-11-27T02:30:19.929Z,38.35
2022-11-27T02:33:22.872Z,45.13
2022-11-27T02:36:31.374Z,43.80
2022-11-27T02:39:57.411Z,43.35
2022-11-27T02:43:16.461Z,41.92
2022-11-27T02:46:20.097Z,40.33
2022-11-27T02:49:22.587Z,45.00
2022-11-27T02:52:27.810Z,46.92
2022-11-27T02:55:35.032Z,48.20
2022-11-27T02:58:38.149Z,47.50
2022-11-27T03:01:48.609Z,52.80
2022-11-27T03:04:56.204Z,49.15
2022-11-27T03:08:07.837Z,46.17
2022-11-27T03:11:13.842Z,43.58
2022-11-27T03:14:16.978Z,48.85
2022-11-27T03:17:41.478Z,47.22
2022-11-27T03:20:48.086Z,45.20
2022-11-27T03:23:48.878Z,46.70
2022-11-27T03:26:51.062Z,40.45
2022-11-27T03:30:02.158Z,46.78
2022-11-27T03:33:03.763Z,46.20
2022-11-27T03:36:20.522Z,40.75
2022-11-27T03:39:24.766Z,47.50
2022-11-27T03:42:40.359Z,39.60
2022-11-27T03:46:02.621Z,51.17
2022-11-27T03:49:22.215Z,50.05
2022-11-27T03:52:48.109Z,46.55
2022-11-27T03:56:10.181Z,46.97
2022-11-27T03:59:25.633Z,49.60
2022-11-27T04:02:41.481Z,45.22
2022-11-27T04:05:42.771Z,43.17
2022-11-27T04:08:47.014Z,41.53
2022-11-27T04:11:48.066Z,46.92
2022-11-27T04:14:48.896Z,46.92
2022-11-27T04:17:49.741Z,44.95
2022-11-27T04:20:50.550Z,53.70
2022-11-27T04:23:51.833Z,44.50
2022-11-27T04:26:52.542Z,50.50
2022-11-27T04:29:53.347Z,45.85
2022-11-27T04:32:54.259Z,46.70
2022-11-27T04:35:55.433Z,51.67
2022-11-27T04:38:56.706Z,45.55
2022-11-27T10:33:59.059Z,9.85
2022-11-27T10:37:08.382Z,10.23
2022-11-27T10:40:12.819Z,11.65
2022-11-27T10:43:20.196Z,10.43
2022-11-27T10:46:37.826Z,9.13
2022-11-27T10:49:42.295Z,8.88
2022-11-27T10:52:57.449Z,8.07
2022-11-27T10:56:39.662Z,9.13
2022-11-27T11:00:08.362Z,8.88
2022-11-27T11:03:18.738Z,9.07
2022-11-27T11:06:27.210Z,8.75
2022-11-27T11:09:34.839Z,9.63
2022-11-27T11:12:36.849Z,9.98
2022-11-27T11:15:53.893Z,9.40
2022-11-27T11:18:56.954Z,8.60
2022-11-27T11:22:00.787Z,8.25
2022-11-27T11:25:02.541Z,8.80
2022-11-27T11:28:03.920Z,9.30
2022-11-27T11:31:13.170Z,9.07
2022-11-27T11:34:26.053Z,9.38
2022-11-27T11:37:35.126Z,9.95
2022-11-27T11:40:37.903Z,9.10
2022-11-27T11:43:39.791Z,11.90
2022-11-27T11:46:41.025Z,8.70
2022-11-27T11:49:42.098Z,9.40
2022-11-27T11:53:08.372Z,8.85
2022-11-27T11:56:17.998Z,11.13
2022-11-27T11:59:53.147Z,8.98
2022-11-27T12:03:13.064Z,9.38
2022-11-27T12:06:30.542Z,9.05
2022-11-27T12:09:56.760Z,9.43
2022-11-27T12:13:12.819Z,9.45
2022-11-27T12:16:25.979Z,8.43
2022-11-27T12:19:30.378Z,8.45
2022-11-27T12:23:37.845Z,8.60
2022-11-27T12:26:59.755Z,8.07
2022-11-27T12:30:20.065Z,7.97
2022-11-27T12:33:44.021Z,9.15
2022-11-27T12:36:58.012Z,9.27
2022-11-27T12:40:29.822Z,11.38
2022-11-27T12:43:38.583Z,12.38
2022-11-27T12:46:45.339Z,9.38
2022-11-27T12:49:57.520Z,8.10
2022-11-27T12:53:11.754Z,8.77
2022-11-27T13:07:56.587Z,7.47
2022-11-27T13:11:10.351Z,9.13
2022-11-27T13:14:24.132Z,8.00
2022-11-27T13:17:41.427Z,8.90
2022-11-27T13:20:48.230Z,7.93
2022-11-27T13:23:52.490Z,9.52
2022-11-27T13:27:10.237Z,7.45
2022-11-27T13:30:25.862Z,8.50
2022-11-27T13:33:41.252Z,7.65
2022-11-27T13:36:46.620Z,8.48
2022-11-27T13:39:47.543Z,9.18
2022-11-27T13:42:55.845Z,7.57
2022-11-27T13:46:20.070Z,7.28
2022-11-27T13:50:00.501Z,9.40
2022-11-27T13:53:07.532Z,8.15
2022-11-27T13:59:28.939Z,9.00
2022-11-27T14:02:44.984Z,13.48
2022-11-27T14:05:46.294Z,8.48
2022-11-27T14:09:01.373Z,10.73
2022-11-27T14:12:15.851Z,8.65
2022-11-27T14:15:16.768Z,8.55
2022-11-27T14:18:21.466Z,8.52
2022-11-27T14:21:51.048Z,8.60
2022-11-27T14:24:56.260Z,7.65
2022-11-27T14:28:19.743Z,8.85
2022-11-27T14:31:36.022Z,8.85
2022-11-27T14:34:37.082Z,8.52
2022-11-27T14:37:38.356Z,9.65
2022-11-27T14:40:39.546Z,9.00
2022-11-27T14:43:40.267Z,10.60
2022-11-27T14:46:41.623Z,7.90
2022-11-27T14:49:42.820Z,8.10
2022-11-27T14:52:53.758Z,8.90
2022-11-27T14:55:58.866Z,8.15
2022-11-27T14:59:01.739Z,8.88
2022-11-27T15:02:06.784Z,8.88
2022-11-27T15:05:16.980Z,9.75
2022-11-27T15:08:19.233Z,9.30
2022-11-27T15:11:54.021Z,9.95
2022-11-27T15:15:02.893Z,11.90
2022-11-27T15:18:08.001Z,11.85
2022-11-27T15:21:20.426Z,10.07
2022-11-27T15:24:35.466Z,10.55
2022-11-27T15:27:47.661Z,11.90
2022-11-27T15:30:49.281Z,9.57
2022-11-27T15:34:21.981Z,14.38
2022-11-27T15:37:34.354Z,10.05
2022-11-27T15:40:40.029Z,10.05
2022-11-27T15:43:40.984Z,10.60
2022-11-27T15:46:42.899Z,12.70
2022-11-27T15:49:43.545Z,11.32
2022-11-27T15:52:44.756Z,11.10
2022-11-27T15:55:45.742Z,12.65
2022-11-27T15:58:46.628Z,18.60
2022-11-27T16:01:49.694Z,13.90
2022-11-27T16:04:51.185Z,12.23
2022-11-27T16:07:55.102Z,12.27
2022-11-27T16:11:01.959Z,13.30
2022-11-27T16:14:03.178Z,14.80
2022-11-27T16:17:04.667Z,12.10
2022-11-27T16:20:06.830Z,12.55
2022-11-27T16:23:08.042Z,15.05
2022-11-27T16:26:13.543Z,14.93
2022-11-27T16:29:14.482Z,16.52
2022-11-27T16:32:15.677Z,12.10
2022-11-27T16:35:16.919Z,15.32
2022-11-27T16:38:18.947Z,16.33
2022-11-27T16:41:21.364Z,14.82
2022-11-27T16:44:22.121Z,14.20
2022-11-27T16:47:23.941Z,19.73
2022-11-27T16:50:26.790Z,13.95
2022-11-27T16:53:28.052Z,14.02
2022-11-27T16:56:31.765Z,16.40
2022-11-27T16:59:32.623Z,13.25
2022-11-27T17:02:34.023Z,14.93
2022-11-27T17:05:38.436Z,14.68
2022-11-27T17:08:40.745Z,18.67
2022-11-27T17:11:48.431Z,22.95
2022-11-27T17:14:49.646Z,20.08
2022-11-27T17:17:56.699Z,26.80
2022-11-27T17:21:19.334Z,20.52
2022-11-27T17:24:20.611Z,20.23
2022-11-27T17:27:24.967Z,24.13
2022-11-27T17:30:26.173Z,20.08
2022-11-27T17:33:28.666Z,22.77
2022-11-27T17:36:36.505Z,24.13
2022-11-27T17:39:41.114Z,25.45
2022-11-27T17:42:42.250Z,26.08
2022-11-27T17:45:43.183Z,21.05
2022-11-27T17:48:45.112Z,24.45
2022-11-27T17:51:46.466Z,20.67
2022-11-27T17:54:48.392Z,21.35
2022-11-27T17:57:49.680Z,25.77
2022-11-27T18:00:50.540Z,24.17
2022-11-27T18:04:04.051Z,25.08
2022-11-27T18:07:05.689Z,24.25
2022-11-27T18:10:07.683Z,24.48
2022-11-27T18:13:08.378Z,21.15
2022-11-27T18:16:18.144Z,20.63
2022-11-27T18:19:19.518Z,22.55
2022-11-27T18:22:20.558Z,21.23
2022-11-27T18:25:21.785Z,23.70
2022-11-27T18:28:23.058Z,19.98
2022-11-27T18:31:25.854Z,25.70
2022-11-27T18:34:27.150Z,24.85
2022-11-27T18:37:28.210Z,24.60
2022-11-27T18:40:29.497Z,25.15
2022-11-27T18:43:31.943Z,24.10
2022-11-27T18:46:33.227Z,23.48
2022-11-27T18:49:34.251Z,25.45
2022-11-27T18:52:35.315Z,28.27
2022-11-27T18:55:36.373Z,28.20
2022-11-27T18:58:38.566Z,24.85
2022-11-27T19:01:42.628Z,24.80
2022-11-27T19:04:45.138Z,27.00
2022-11-27T19:07:46.265Z,29.13
2022-11-27T19:10:47.711Z,25.58
2022-11-27T19:13:50.011Z,27.52
2022-11-27T19:16:50.988Z,30.77
2022-11-27T19:19:54.855Z,27.15
2022-11-27T19:22:55.867Z,25.30
2022-11-27T19:25:56.785Z,30.95
2022-11-27T19:29:01.586Z,28.98
2022-11-27T19:32:03.089Z,27.23
2022-11-27T19:35:07.162Z,23.95
2022-11-27T19:38:08.294Z,29.98
2022-11-27T19:41:12.829Z,28.52
2022-11-27T19:44:14.112Z,24.02
2022-11-27T19:47:16.343Z,26.83
2022-11-27T19:50:18.939Z,37.35
2022-11-27T19:53:20.041Z,28.88
2022-11-27T19:56:21.219Z,26.67
2022-11-27T19:59:25.808Z,30.48
2022-11-27T20:02:29.998Z,30.48
2022-11-27T20:05:30.869Z,29.27
2022-11-27T20:08:31.883Z,24.25
2022-11-27T20:11:35.594Z,30.73
2022-11-27T20:14:38.145Z,31.05
2022-11-27T20:17:41.663Z,33.05
2022-11-27T20:20:42.551Z,25.23
2022-11-27T20:23:45.917Z,29.13
2022-11-27T20:26:47.231Z,33.08
2022-11-27T20:29:48.347Z,26.50
2022-11-27T20:32:49.553Z,27.27
2022-11-27T20:35:50.787Z,29.58
2022-11-27T20:38:55.864Z,29.38
2022-11-27T20:41:57.710Z,29.75
2022-11-27T20:44:58.772Z,34.65
2022-11-27T20:47:59.877Z,30.30
2022-11-27T20:51:18.300Z,25.33
2022-11-27T20:54:19.694Z,29.17
2022-11-27T20:57:20.835Z,29.77
2022-11-27T21:00:22.447Z,27.02
2022-11-27T21:03:23.710Z,31.70
2022-11-27T21:06:29.108Z,26.23
2022-11-27T21:09:30.237Z,35.42
2022-11-27T21:12:32.081Z,27.73
2022-11-27T21:15:32.944Z,27.95
2022-11-27T21:18:34.285Z,29.98
2022-11-27T21:21:35.508Z,28.02
2022-11-27T21:24:37.371Z,27.30
2022-11-27T21:27:38.697Z,23.38
2022-11-27T21:30:39.890Z,24.75
2022-11-27T21:33:55.449Z,29.35
2022-11-27T21:36:57.282Z,25.80
2022-11-27T21:39:57.894Z,34.50
2022-11-27T21:42:59.186Z,29.45
2022-11-27T21:46:19.098Z,29.33
2022-11-27T21:49:21.267Z,36.28
2022-11-27T21:52:22.656Z,28.92
2022-11-27T21:55:25.560Z,34.78
2022-11-27T21:58:26.155Z,36.17
2022-11-27T22:01:27.587Z,37.90
2022-11-27T22:04:28.743Z,38.80
2022-11-27T22:07:29.601Z,39.28
2022-11-27T22:10:30.871Z,36.88
2022-11-27T22:13:34.608Z,35.83
2022-11-27T22:16:44.472Z,38.40
2022-11-27T22:19:46.584Z,43.58
2022-11-27T22:22:48.435Z,38.55
2022-11-27T22:25:49.299Z,40.35
2022-11-27T22:28:51.444Z,41.33
2022-11-27T22:31:54.010Z,41.95
2022-11-27T22:34:54.869Z,39.47
2022-11-27T22:37:56.039Z,41.10
2022-11-27T22:41:00.135Z,42.72
2022-11-27T22:44:02.623Z,35.00
2022-11-27T22:47:04.657Z,37.47
2022-11-27T22:50:07.175Z,35.38
2022-11-27T22:53:07.875Z,38.90
2022-11-27T22:56:12.956Z,38.65
2022-11-27T23:02:39.271Z,37.47
2022-11-27T23:05:45.347Z,33.72
2022-11-27T23:08:47.940Z,34.85
2022-11-27T23:11:49.283Z,41.22
2022-11-27T23:14:50.578Z,38.30
2022-11-27T23:17:52.734Z,38.67
2022-11-27T23:20:53.670Z,35.47
2022-11-27T23:23:54.721Z,39.67
2022-11-27T23:26:55.813Z,36.13
2022-11-27T23:29:57.060Z,41.55
2022-11-27T23:32:57.798Z,37.03
2022-11-27T23:36:01.022Z,40.60
2022-11-27T23:39:05.809Z,40.65
2022-11-27T23:42:07.070Z,36.97
2022-11-27T23:45:09.093Z,40.20
2022-11-27T23:48:10.129Z,40.90
2022-11-27T23:51:14.807Z,33.58
2022-11-27T23:54:16.032Z,45.05
2022-11-27T23:57:17.378Z,36.08
